Redwood Falls Municipal Airport
KRWF : rendu visible

Aérodrome :











RETROUVEZ-NOUS SUR...

 
LOGIN :

S'inscrire | Disclaimer

   EN    FR    IT 

 









Légende :    VFR   VFR Marginal   IFR   IFR Intensif   IFR Très Intensif
Visi : 
Plafond : 
>= 8 km
>= 3000ft
5 à 8 km
1000 à 3000 ft
1500m à 5 km
500 à 1000 ft
800 à 1500m
200 à 500 ft
< 800m
< 200 ft
Symboles :   Orages  Brouillard  Fortes neiges  Fortes précipitations  Vent > 20 kt






- Altitude de l'aérodrome : 1024 ft


KRWF - Redwood Falls Municipal

DERNIER METAR :
  • 211553Z AUTO 32019G35KT 10SM OVC009 M03/M05 A3000 RMK AO2 PK WND 31039/1503 SLP169 T10331050

METARs EXPIRÉS :
  • 211453Z AUTO 32020G34KT 10SM OVC005 M02/M03 A2996 RMK AO2 PK WND 32034/1452 SNE31 SLP153 P0000 60000 T10221033 53035
  • 211427Z AUTO 33016G31KT 4SM -SN BR OVC006 M01/M02 A2993 RMK AO2 PK WND 31031/1422 CIG 005V010 P0000 T10111022
  • 211420Z AUTO 32017G28KT 2 1/2SM -SN BR OVC008 M01/M02 A2993 RMK AO2 PK WND 31028/1417 CIG 005V011 P0000 T10061017
  • 211403Z AUTO 32013G27KT 3SM -SN BR BKN009 OVC016 00/M01 A2992 RMK AO2 PK WND 30027/1400 CIG 007V012 P0000 T00001011
  • 211353Z AUTO 32015G29KT 7SM -SN SCT008 OVC018 00/M01 A2990 RMK AO2 PK WND 33031/1302 SNE02B51 SLP135 P0000 T00001011
  • 211317Z AUTO 33013G24KT 10SM FEW010 BKN015 OVC020 01/M01 A2986 RMK AO2 PK WND 33031/1302 SNE02 P0000 T00111006
  • 211314Z AUTO 33016G24KT 10SM SCT010 BKN013 OVC050 01/M01 A2986 RMK AO2 PK WND 33031/1302 SNE02 P0000 T00111006

TAF KRWF
Valide du 21 à 15h jusqu'au 22 à 12h UTC


211503Z 2115/2212 32020G32KT P6SM OVC006
FM211800 33012G30KT P6SM SCT015
FM220100 31009KT P6SM SKC



MET'MAP, la Météo Aéronautique d'un coup d'oeil ! - Copyright ORBIFLY Décembre 2007 - Disclaimer

ORBIFLY MET'MAP TEAM :

Programmation & Développement : Alexandra Zaïnal
Conception & Développement : Baudouin d'Aumeries
Co-Programmation & Développement : Marc-Olivier Méhu
Soutien technique & logistique : Manuel Goepfert

Contact : metmap@orbifly.com




SOURCES & CREDITS :

   NOAA       Earth
Advisory